• Join FlightAware (Why Join?)
  • Login
  • US Flag GB Flag 
20:27 EDT


 

Airport Tracker/Info


-or-


 

Live Flight TrackerFlight Track Log ✈ SWA2166 ✈ 12-Apr-2013 ✈ KHOU - KBWI

Flight Track Log - Related Links

Times and Time Zones

All times are in EDT time to prevent confusion due to time zone crossing. See the SWA2166 flight status page for this flight to view local times or setup timezone preferences in your user account.

Time Position Orientation Groundspeed Altitude Reporting Facility
EDT Latitude Longitude Course Direction KTS MPH feet Rate Location/Type
21:45 29.6606 -95.2644 15° North 164 189 800  Level Houston Center
21:46 29.6728 -95.2606 15° North 167 192 1,700 3,120 Climbing Houston Center
21:47 29.7261 -95.2708 350° North 220 253 4,700 2,880 Climbing Houston Center
21:47 29.7372 -95.2728 351° North 205 236 5,300 3,780 Climbing Houston Center
21:48 29.7919 -95.2797 354° North 242 278 8,500 3,900 Climbing Houston Center
21:48 29.8047 -95.2817 352° North 232 267 9,300 2,820 Climbing Houston Center
21:49 29.8736 -95.2844 358° North 245 282 12,400 2,820 Climbing Houston Center
21:50 29.9767 -95.2297 25° Northeast 340 391 15,100 2,640 Climbing Houston Center
21:51 30.0753 -95.1794 24° Northeast 379 436 17,900 2,400 Climbing Houston Center
21:52 30.1828 -95.1219 25° Northeast 424 488 20,100 2,460 Climbing Houston Center
21:53 30.2947 -95.0644 24° Northeast 439 505 23,000 2,460 Climbing Houston Center
21:54 30.4122 -95.0011 25° Northeast 468 539 25,200 2,160 Climbing Houston Center
21:55 30.5228 -94.9153 34° Northeast 468 539 27,500 2,220 Climbing Houston Center
21:56 30.6350 -94.8275 34° Northeast 480 552 29,800 1,860 Climbing Houston Center
21:57 30.7417 -94.7275 39° Northeast 495 570 31,400 1,620 Climbing Houston Center
21:58 30.8328 -94.6036 49° Northeast 507 583 33,100 1,860 Climbing Houston Center
21:59 30.9428 -94.4553 49° Northeast 510 587 35,300 2,040 Climbing Houston Center
22:00 31.0325 -94.3342 49° Northeast 502 578 37,300 1,500 Climbing Houston Center
22:01 31.1222 -94.2128 49° Northeast 499 574 38,400 780 Climbing Houston Center
22:02 31.2133 -94.0906 49° Northeast 501 577 39,000 240 Climbing Houston Center
22:03 31.3033 -93.9658 50° Northeast 503 579 39,000  Level Houston Center
22:04 31.3944 -93.8433 49° Northeast 501 577 39,000  Level Houston Center
22:05 31.4844 -93.7192 50° Northeast 499 574 39,000  Level Houston Center
22:06 31.5744 -93.5958 49° Northeast 498 573 39,000  Level Houston Center
22:07 31.6817 -93.4478 50° Northeast 499 574 39,000  Level Houston Center
22:08 31.7725 -93.3233 49° Northeast 500 575 39,000  Level Houston Center
22:09 31.8611 -93.1983 50° Northeast 498 573 39,000  Level Houston Center
22:10 31.9506 -93.0722 50° Northeast 499 574 39,000  Level Houston Center
22:11 32.0347 -92.9550 50° Northeast 495 570 39,000  Level Houston Center
22:12 32.1294 -92.8231 50° Northeast 497 572 39,000  Level Houston Center
22:13 32.2175 -92.6961 51° Northeast 498 573 39,000  Level Houston Center
22:14 32.3017 -92.5803 49° Northeast 497 572 39,000  Level Houston Center
22:15 32.3894 -92.4528 51° Northeast 499 574 39,000  Level Houston Center
22:16 32.4503 -92.3669 50° Northeast 488 562 39,000  Level Fort Worth Center
22:17 32.5392 -92.2411 50° Northeast 488 562 39,000  Level Fort Worth Center
22:18 32.6278 -92.1103 51° Northeast 493 567 39,000  Level Fort Worth Center
22:20 32.7858 -91.8794 51° Northeast 505 581 39,000  Level Memphis Center
22:21 32.8772 -91.7525 49° Northeast 510 587 39,000  Level Memphis Center
22:22 32.9642 -91.6225 51° Northeast 510 587 39,000  Level Memphis Center
22:23 33.0531 -91.4925 51° Northeast 505 581 39,000  Level Memphis Center
22:24 33.1336 -91.3544 55° Northeast 505 581 39,000  Level Memphis Center
22:25 33.2097 -91.2089 58° Northeast 505 581 39,000  Level Memphis Center
22:26 33.2858 -91.0681 57° Northeast 505 581 39,000  Level Memphis Center
22:27 33.3594 -90.9219 59° Northeast 510 587 39,000  Level Memphis Center
22:28 33.4372 -90.7756 57° Northeast 516 594 39,000  Level Memphis Center
22:29 33.5128 -90.6289 58° Northeast 516 594 39,000  Level Memphis Center
22:30 33.5883 -90.4794 59° Northeast 516 594 39,000  Level Memphis Center
22:31 33.6656 -90.3272 59° Northeast 516 594 39,000  Level Memphis Center
22:32 33.7406 -90.1797 59° Northeast 516 594 39,000  Level Memphis Center
22:33 33.8175 -90.0297 58° Northeast 516 594 39,000  Level Memphis Center
22:34 33.8900 -89.8767 60° Northeast 522 601 39,000  Level Memphis Center
22:35 33.9686 -89.7236 58° Northeast 527 606 39,000  Level Memphis Center
22:36 34.0408 -89.5725 60° Northeast 527 606 39,000  Level Memphis Center
22:37 34.1169 -89.4214 59° Northeast 522 601 39,000  Level Memphis Center
22:38 34.1931 -89.2697 59° Northeast 522 601 39,000  Level Memphis Center
22:39 34.2667 -89.1181 60° Northeast 522 601 39,000  Level Memphis Center
22:40 34.3483 -88.9533 59° Northeast 521 600 39,000  Level Memphis Center
22:41 34.4053 -88.8342 60° Northeast 516 594 39,000  Level Memphis Center
22:42 34.4911 -88.6764 57° Northeast 510 587 39,000  Level Memphis Center
22:43 34.5619 -88.5236 61° Northeast 510 587 39,000  Level Memphis Center
22:44 34.6367 -88.3731 59° Northeast 510 587 39,000  Level Memphis Center
22:45 34.7114 -88.2222 59° Northeast 517 595 39,000  Level Memphis Center
22:46 34.7917 -88.0433 61° Northeast 531 611 39,000  Level Memphis Center
22:47 34.8700 -87.8842 59° Northeast 536 617 39,000  Level Memphis Center
22:48 34.9417 -87.7250 61° Northeast 529 609 39,000  Level Memphis Center
22:49 35.0156 -87.5681 60° Northeast 541 623 39,000  Level Memphis Center
22:51 35.1822 -87.2119 60° Northeast 554 638 39,000  Level Memphis Center
22:52 35.2556 -87.0642 59° Northeast 561 646 39,000  Level Memphis Center
22:53 35.3306 -86.9008 61° Northeast 561 646 39,000  Level Memphis Center
22:54 35.4128 -86.7167 61° Northeast 555 639 39,000 -240 Level Memphis Center
22:55 35.4892 -86.5500 61° Northeast 555 639 38,600 -900 Descending Memphis Center
22:56 35.5633 -86.3883 61° Northeast 555 639 37,300 -840 Descending Memphis Center
22:57 35.6372 -86.2267 61° Northeast 550 633 37,000 -180 Descending Memphis Center
22:58 35.7111 -86.0644 61° Northeast 550 633 37,000  Level Memphis Center
22:59 35.7844 -85.8992 61° Northeast 545 627 37,000  Level Memphis Center
23:00 35.8500 -85.7550 61° Northeast 540 621 37,000  Level Memphis Center
23:01 35.9256 -85.5850 61° Northeast 538 619 37,000  Level Atlanta Center
23:02 35.9983 -85.4222 61° Northeast 582 670 37,000  Level Atlanta Center
23:03 36.0731 -85.2564 61° Northeast 555 639 37,000  Level Atlanta Center
23:04 36.1603 -85.0531 62° Northeast 553 636 37,000  Level Indianapolis Center
23:05 36.2344 -84.8847 61° Northeast 549 632 37,000  Level Indianapolis Center
23:06 36.3075 -84.7144 62° Northeast 553 636 37,000  Level Indianapolis Center
23:07 36.3797 -84.5464 62° Northeast 549 632 37,000  Level Indianapolis Center
23:08 36.4522 -84.3769 62° Northeast 554 638 37,000  Level Indianapolis Center
23:09 36.5256 -84.2039 62° Northeast 552 635 37,000  Level Indianapolis Center
23:10 36.5986 -84.0328 62° Northeast 558 642 37,000  Level Indianapolis Center
23:11 36.6706 -83.8608 62° Northeast 560 644 37,000  Level Indianapolis Center
23:12 36.7453 -83.6900 61° Northeast 558 642 37,000  Level Indianapolis Center
23:13 36.8186 -83.5150 62° Northeast 565 650 37,000  Level Indianapolis Center
23:14 36.8911 -83.3419 62° Northeast 559 643 37,000  Level Indianapolis Center
23:15 36.9633 -83.1661 63° Northeast 562 647 37,000  Level Indianapolis Center
23:16 37.0378 -82.9886 62° Northeast 561 646 37,000  Level Indianapolis Center
23:17 37.1114 -82.8081 63° Northeast 567 652 37,000  Level Indianapolis Center
23:18 37.1822 -82.6314 63° Northeast 562 647 37,000  Level Indianapolis Center
23:19 37.2553 -82.4567 62° Northeast 564 649 37,000  Level Indianapolis Center
23:20 37.3256 -82.2803 63° Northeast 563 648 37,000  Level Indianapolis Center
23:21 37.3967 -82.1047 63° Northeast 563 648 37,000  Level Indianapolis Center
23:22 37.4669 -81.9292 63° Northeast 562 647 37,000  Level Indianapolis Center
23:23 37.5275 -81.7464 67° East 564 649 37,000  Level Indianapolis Center
23:25 37.5928 -81.5317 69° East 562 647 37,000  Level Indianapolis Center
23:26 37.6464 -81.3539 69° East 562 647 37,000  Level Indianapolis Center
23:26 37.6692 -81.2800 69° East 553 636 37,000  Level Washington Center
23:27 37.7233 -81.1003 69° East 553 636 37,000  Level Washington Center
23:28 37.7747 -80.9333 69° East 558 642 37,000  Level Washington Center
23:29 37.8289 -80.7478 70° East 558 642 37,000  Level Washington Center
23:30 37.8825 -80.5647 70° East 553 636 37,000  Level Washington Center
23:31 37.9378 -80.3814 69° East 558 642 37,000  Level Washington Center
23:32 37.9981 -80.1769 69° East 558 642 37,000  Level Washington Center
23:33 38.0528 -79.9931 69° East 558 642 37,000  Level Washington Center
23:34 38.1056 -79.8061 70° East 558 642 37,000  Level Washington Center
23:35 38.1597 -79.6217 69° East 558 642 37,000 -600 Level Washington Center
23:36 38.2139 -79.4342 70° East 558 642 35,900 -1,860 Descending Washington Center
23:37 38.2678 -79.2492 70° East 558 642 33,300 -2,520 Descending Washington Center
23:38 38.3122 -79.0822 71° East 553 636 30,900 -2,340 Descending Washington Center
23:39 38.3611 -78.9069 70° East 543 625 28,700 -1,980 Descending Washington Center
23:40 38.4100 -78.7183 72° East 523 602 27,000 -900 Descending Washington Center
23:41 38.4581 -78.5428 71° East 516 594 27,000 -60 Level Washington Center
23:42 38.5061 -78.3617 71° East 522 601 26,900 -1,440 Descending Washington Center
23:43 38.5561 -78.1803 71° East 529 609 24,200 -2,820 Descending Washington Center
23:44 38.6036 -78.0039 71° East 529 609 21,300 -2,640 Descending Washington Center
23:45 38.6422 -77.8350 74° East 514 592 19,000 -1,200 Descending Washington Center
23:46 38.6511 -77.6892 85° East 480 552 19,000  Level Washington Center
23:47 38.6667 -77.5667 81° East 464 534 19,000 -1,620 Level Potomac TRACON
23:48 38.6667 -77.4000 90° East 457 526 16,300 -1,620 Descending Potomac TRACON
23:49 38.6833 -77.2500 82° East 434 499 15,800 -1,680 Descending Potomac TRACON
23:49 38.7000 -77.1167 81° East 428 493 13,200 -2,700 Descending Potomac TRACON
23:50 38.7167 -76.9833 81° East 419 482 11,000 -1,620 Descending Potomac TRACON
23:51 38.7500 -76.8333 74° East 369 425 10,000 -1,200 Descending Potomac TRACON
23:52 38.7667 -76.7167 80° East 335 386 8,500 -1,440 Descending Potomac TRACON
23:54 38.8333 -76.6333 44° Northeast 313 360 7,100 -1,440 Descending Potomac TRACON
23:54 38.9000 -76.5667 38° Northeast 306 352 5,700 -1,200 Descending Potomac TRACON
23:55 38.9500 -76.5167 38° Northeast 263 303 5,000 -780 Descending Potomac TRACON
23:56 39.0000 -76.4667 38° Northeast 213 245 4,300 -840 Descending Potomac TRACON
23:57 39.0167 -76.5167 293° West 162 186 3,300 -900 Descending Potomac TRACON
23:58 39.0500 -76.5500 322° Northwest 142 163 2,600 -660 Descending Potomac TRACON
23:59 39.0833 -76.5833 322° Northwest 140 161 2,100 -540 Descending Potomac TRACON
00:00 39.1000 -76.6167 303° West 141 162 1,600 -600 Descending Potomac TRACON
00:01 39.1333 -76.6333 339° North 108 124 900 -600 Descending Potomac TRACON
00:02 39.1500 -76.6500 322° Northwest 113 130 400 -600 Descending Potomac TRACON
00:04 39.1667 -76.6667 339° North  Level FlightAware Approximate
00:11 39.1754 -76.6683 339° North  Level Estimated
00:12 39.1754 -76.6683 339° North  Level Estimated
00:13 39.1754 -76.6683 339° North  Level Estimated